Time;durP1;ratioP1;P1;durP2;ratioP2;P2;SDS_P1;SDS_P2;PMS_P1;PMS_P2;Temp;Humidity;BMP_temperature;BMP_pressure;BME280_temperature;BME280_humidity;BME280_pressure;Samples;Min_cycle;Max_cycle;Signal;HPM_P1;HPM_P2
2023/02/12 00:00:56;;;;;;;7.28;6.45;;;10.00;99.90;;;;;;4966567;28;20313;-85
2023/02/12 00:03:24;;;;;;;14.77;8.30;;;10.00;99.90;;;;;;5000994;28;20233;-86
2023/02/12 00:05:51;;;;;;;12.60;7.60;;;10.00;99.90;;;;;;5001215;28;20308;-77
2023/02/12 00:08:18;;;;;;;10.00;7.18;;;10.00;99.90;;;;;;4971671;28;20233;-86
2023/02/12 00:10:50;;;;;;;11.90;7.40;;;10.00;99.90;;;;;;4966769;28;20583;-78
2023/02/12 00:13:17;;;;;;;8.38;6.55;;;9.90;99.90;;;;;;4992983;28;20488;-86
2023/02/12 00:15:44;;;;;;;8.52;6.07;;;9.90;99.90;;;;;;5001615;28;20229;-78
2023/02/12 00:18:11;;;;;;;11.93;8.95;;;9.90;99.90;;;;;;5032209;28;20221;-78
2023/02/12 00:20:40;;;;;;;9.15;7.30;;;9.90;99.90;;;;;;5033305;28;20251;-85
2023/02/12 00:23:07;;;;;;;15.05;6.53;;;9.90;99.90;;;;;;5033585;28;20316;-78
2023/02/12 00:25:35;;;;;;;12.07;7.43;;;9.90;99.90;;;;;;5033897;28;20282;-78
2023/02/12 00:28:02;;;;;;;12.35;7.65;;;9.80;99.90;;;;;;5033077;28;20547;-77
2023/02/12 00:30:29;;;;;;;9.73;6.13;;;9.90;99.90;;;;;;5033771;28;20236;-77
2023/02/12 00:32:56;;;;;;;10.80;5.82;;;9.80;99.90;;;;;;5033519;28;20548;-76
2023/02/12 00:35:23;;;;;;;14.90;7.18;;;9.80;99.90;;;;;;5034110;28;20233;-78
2023/02/12 00:37:56;;;;;;;9.00;5.88;;;9.80;99.90;;;;;;5017049;28;20571;-83
2023/02/12 00:40:23;;;;;;;9.15;5.20;;;9.80;99.90;;;;;;5023686;28;20233;-76
2023/02/12 00:42:52;;;;;;;12.50;6.85;;;9.80;99.90;;;;;;5033572;28;20221;-77
2023/02/12 00:45:22;;;;;;;12.05;5.95;;;9.80;99.90;;;;;;5034137;28;20229;-84
2023/02/12 00:47:50;;;;;;;18.92;7.85;;;9.80;99.90;;;;;;5025541;28;20275;-85
2023/02/12 00:50:17;;;;;;;10.10;6.00;;;9.70;99.90;;;;;;5021580;28;20304;-84
2023/02/12 00:52:44;;;;;;;10.68;6.57;;;9.70;99.90;;;;;;5032784;28;20231;-77
2023/02/12 00:55:12;;;;;;;10.05;6.13;;;9.80;99.90;;;;;;5019261;28;20229;-84
2023/02/12 00:57:42;;;;;;;8.50;5.85;;;9.80;99.90;;;;;;5035067;28;20252;-76
2023/02/12 01:00:14;;;;;;;9.50;6.43;;;9.80;99.90;;;;;;5020787;28;20279;-77
2023/02/12 01:02:40;;;;;;;9.80;6.80;;;9.80;99.90;;;;;;5033136;28;20285;-77
2023/02/12 01:05:08;;;;;;;12.00;6.72;;;9.80;99.90;;;;;;5032590;28;20225;-77
2023/02/12 01:07:37;;;;;;;18.25;7.40;;;9.70;99.90;;;;;;5033766;28;20221;-77
2023/02/12 01:10:05;;;;;;;13.13;7.15;;;9.70;99.90;;;;;;5033518;28;20580;-76
2023/02/12 01:12:35;;;;;;;17.80;7.70;;;9.80;99.90;;;;;;5036097;28;20321;-84
2023/02/12 01:15:02;;;;;;;11.63;6.93;;;9.80;99.90;;;;;;5034816;28;20217;-84
2023/02/12 01:17:32;;;;;;;11.68;8.07;;;9.70;99.90;;;;;;5043035;28;20225;-76
2023/02/12 01:19:59;;;;;;;16.42;9.50;;;9.80;99.90;;;;;;5036115;28;20308;-77
2023/02/12 01:22:26;;;;;;;12.15;7.03;;;9.70;99.90;;;;;;5033351;28;20217;-77
2023/02/12 01:24:53;;;;;;;14.88;8.20;;;9.70;99.90;;;;;;5034145;28;20236;-77
2023/02/12 01:27:20;;;;;;;13.88;7.90;;;9.70;99.90;;;;;;5037518;28;20221;-76
2023/02/12 01:29:48;;;;;;;12.75;7.47;;;9.80;99.90;;;;;;5032982;28;20283;-76
2023/02/12 01:32:15;;;;;;;14.77;8.00;;;9.70;99.90;;;;;;5032060;28;20217;-84
2023/02/12 01:34:42;;;;;;;7.88;5.28;;;9.80;99.90;;;;;;5033799;28;20679;-84
2023/02/12 01:37:09;;;;;;;13.95;5.90;;;9.70;99.90;;;;;;5032238;28;20766;-77
2023/02/12 01:39:39;;;;;;;10.57;6.78;;;9.70;99.90;;;;;;5032920;28;20251;-76
2023/02/12 01:42:07;;;;;;;10.07;5.63;;;9.80;99.90;;;;;;5032101;28;20217;-77
2023/02/12 01:44:35;;;;;;;9.52;5.38;;;9.70;99.90;;;;;;5032960;28;20667;-77
2023/02/12 01:47:05;;;;;;;12.30;6.50;;;9.70;99.90;;;;;;5020627;28;20229;-76
2023/02/12 01:49:39;;;;;;;9.75;5.68;;;9.70;99.90;;;;;;5033298;28;20567;-80
2023/02/12 01:52:13;;;;;;;15.45;5.95;;;9.70;99.90;;;;;;5032281;28;20683;-83
2023/02/12 01:54:41;;;;;;;11.80;5.88;;;9.70;99.90;;;;;;5032975;28;20576;-84
2023/02/12 01:57:12;;;;;;;10.40;6.60;;;9.70;99.90;;;;;;5032688;28;20634;-83
2023/02/12 01:59:40;;;;;;;13.27;5.85;;;9.70;99.90;;;;;;5033043;28;20310;-76
2023/02/12 02:02:08;;;;;;;9.13;4.75;;;9.70;99.90;;;;;;5031789;28;20229;-76
2023/02/12 02:04:43;;;;;;;9.80;5.25;;;9.70;99.90;;;;;;5020136;28;20233;-84
2023/02/12 02:07:10;;;;;;;8.95;5.30;;;9.70;99.90;;;;;;5035270;28;20258;-76
2023/02/12 02:09:39;;;;;;;7.40;5.47;;;9.70;99.90;;;;;;5037273;28;20630;-78
2023/02/12 02:15:03;;;;;;;12.18;5.93;;;9.70;99.90;;;;;;5000826;28;20300;-78
2023/02/12 02:17:51;;;;;;;12.05;6.47;;;9.70;99.90;;;;;;5036605;28;20217;-85
2023/02/12 02:20:48;;;;;;;13.32;6.20;;;9.70;99.90;;;;;;5036078;28;20247;-77
2023/02/12 02:23:56;;;;;;;11.23;4.93;;;9.70;99.90;;;;;;5035776;28;20600;-78
2023/02/12 02:26:40;;;;;;;10.63;6.07;;;9.70;99.90;;;;;;5029126;28;20549;-85
2023/02/12 02:29:39;;;;;;;10.88;5.32;;;9.60;99.90;;;;;;5024513;28;20225;-85
2023/02/12 02:32:24;;;;;;;7.78;5.40;;;9.70;99.90;;;;;;5035613;28;20287;-85
2023/02/12 02:34:57;;;;;;;10.93;5.20;;;9.60;99.90;;;;;;5036560;28;20589;-86
2023/02/12 02:37:31;;;;;;;7.85;4.60;;;9.60;99.90;;;;;;5034510;28;20221;-85
2023/02/12 02:40:02;;;;;;;9.15;5.38;;;9.60;99.90;;;;;;5036371;28;20734;-77
2023/02/12 02:42:37;;;;;;;9.70;5.82;;;9.60;99.90;;;;;;5036224;28;20218;-83
2023/02/12 02:45:11;;;;;;;16.02;6.80;;;9.60;99.90;;;;;;5036600;28;20225;-85
2023/02/12 02:47:45;;;;;;;8.50;5.55;;;9.60;99.90;;;;;;5035856;28;20224;-85
2023/02/12 02:50:17;;;;;;;10.70;6.50;;;9.60;99.90;;;;;;5035951;28;20228;-77
2023/02/12 02:52:52;;;;;;;9.38;5.25;;;9.60;99.90;;;;;;5028034;28;20307;-77
2023/02/12 02:55:24;;;;;;;12.80;6.22;;;9.60;99.90;;;;;;5047444;28;20314;-85
2023/02/12 02:57:56;;;;;;;13.45;6.15;;;9.60;99.90;;;;;;5026096;28;20651;-84
2023/02/12 03:00:27;;;;;;;11.45;6.63;;;9.60;99.90;;;;;;5036361;28;20229;-77
2023/02/12 03:03:00;;;;;;;13.88;5.43;;;9.60;99.90;;;;;;5036017;28;20279;-84
2023/02/12 03:05:31;;;;;;;9.90;5.75;;;9.60;99.90;;;;;;5036500;28;20506;-85
2023/02/12 03:08:05;;;;;;;14.55;5.53;;;9.60;99.90;;;;;;5035209;28;20221;-78
2023/02/12 03:10:36;;;;;;;9.32;6.40;;;9.60;99.90;;;;;;5035334;28;20244;-78
2023/02/12 03:13:09;;;;;;;10.00;5.32;;;9.60;99.90;;;;;;5035980;28;20231;-85
2023/02/12 03:15:45;;;;;;;16.33;7.45;;;9.60;99.90;;;;;;5035817;28;20225;-78
2023/02/12 03:18:18;;;;;;;10.07;5.00;;;9.60;99.90;;;;;;5034096;28;20666;-78
2023/02/12 03:20:58;;;;;;;11.40;4.70;;;9.60;99.90;;;;;;5035541;28;20225;-85
2023/02/12 03:23:29;;;;;;;11.10;5.82;;;9.60;99.90;;;;;;5035789;28;20228;-84
2023/02/12 03:26:01;;;;;;;7.80;5.22;;;9.60;99.90;;;;;;5035915;28;20711;-85
2023/02/12 03:28:31;;;;;;;10.40;5.30;;;9.60;99.90;;;;;;5035104;28;20683;-84
2023/02/12 03:31:07;;;;;;;13.95;5.32;;;9.60;99.90;;;;;;5035909;28;20279;-85
2023/02/12 03:33:50;;;;;;;7.32;4.50;;;9.60;99.90;;;;;;5034722;28;20286;-76
2023/02/12 03:36:29;;;;;;;8.35;5.22;;;9.70;99.90;;;;;;5026623;28;20276;-85
2023/02/12 03:39:04;;;;;;;10.35;4.82;;;9.70;99.90;;;;;;5022512;28;20647;-84
2023/02/12 03:41:40;;;;;;;9.55;5.20;;;9.70;99.90;;;;;;5034593;28;20225;-84
2023/02/12 03:44:18;;;;;;;14.07;5.97;;;9.60;99.90;;;;;;5035482;28;20319;-84
2023/02/12 03:46:58;;;;;;;15.50;5.85;;;9.70;99.90;;;;;;5033083;28;20310;-77
2023/02/12 03:49:37;;;;;;;14.55;5.93;;;9.70;99.90;;;;;;5035100;28;20376;-77
2023/02/12 03:52:05;;;;;;;5.97;4.50;;;9.70;99.90;;;;;;5033806;28;20295;-77
2023/02/12 03:54:37;;;;;;;9.18;5.15;;;9.70;99.90;;;;;;5033023;28;20336;-84
2023/02/12 03:57:07;;;;;;;8.50;4.90;;;9.60;99.90;;;;;;5033479;28;20229;-85
2023/02/12 03:59:36;;;;;;;7.10;5.70;;;9.60;99.90;;;;;;5034168;28;20265;-77
2023/02/12 04:02:04;;;;;;;6.05;5.10;;;9.60;99.90;;;;;;5022856;28;20568;-77
2023/02/12 04:04:34;;;;;;;9.93;4.80;;;9.60;99.90;;;;;;5034884;28;20344;-77
2023/02/12 04:07:01;;;;;;;9.57;7.10;;;9.60;99.90;;;;;;5033864;28;20546;-84
2023/02/12 04:09:29;;;;;;;13.07;6.00;;;9.60;99.90;;;;;;5035619;28;20679;-85
2023/02/12 04:12:09;;;;;;;13.52;6.88;;;9.60;99.90;;;;;;5033736;28;20694;-84
2023/02/12 04:14:45;;;;;;;12.93;5.93;;;9.60;99.90;;;;;;5034802;28;20225;-85
2023/02/12 04:17:21;;;;;;;10.20;5.30;;;9.60;99.90;;;;;;5033886;28;20275;-78
2023/02/12 04:20:03;;;;;;;9.50;5.00;;;9.60;99.90;;;;;;5033577;28;20228;-79
2023/02/12 04:22:43;;;;;;;12.20;5.15;;;9.60;99.90;;;;;;5034508;28;20225;-78
2023/02/12 04:25:20;;;;;;;13.38;6.07;;;9.60;99.90;;;;;;5034730;28;20224;-85
2023/02/12 04:27:54;;;;;;;12.68;5.70;;;9.60;99.90;;;;;;5035230;28;20247;-77
2023/02/12 04:30:25;;;;;;;9.75;5.22;;;9.50;99.90;;;;;;5034007;28;20229;-76
2023/02/12 04:32:57;;;;;;;8.75;5.78;;;9.50;99.90;;;;;;5033850;28;20229;-77
2023/02/12 04:35:33;;;;;;;11.23;4.15;;;9.50;99.90;;;;;;5034272;28;20232;-76
2023/02/12 04:38:08;;;;;;;10.07;5.00;;;9.50;99.90;;;;;;5024692;28;20261;-76
2023/02/12 04:40:38;;;;;;;10.25;4.82;;;9.50;99.90;;;;;;5033905;28;20260;-83
2023/02/12 04:43:05;;;;;;;9.45;5.45;;;9.50;99.90;;;;;;5034716;28;20757;-76
2023/02/12 04:45:35;;;;;;;11.48;4.50;;;9.50;99.90;;;;;;5034336;28;20236;-76
2023/02/12 04:48:03;;;;;;;11.75;4.90;;;9.50;99.90;;;;;;5034579;28;20233;-76
2023/02/12 04:50:42;;;;;;;7.78;5.50;;;9.50;99.90;;;;;;5034140;28;20233;-83
2023/02/12 04:53:10;;;;;;;8.10;4.95;;;9.50;99.90;;;;;;5034187;28;20229;-84
2023/02/12 04:55:37;;;;;;;9.70;5.72;;;9.50;99.90;;;;;;5033176;28;20591;-77
2023/02/12 04:58:05;;;;;;;13.38;5.55;;;9.50;99.90;;;;;;5033586;28;20742;-76
2023/02/12 05:00:32;;;;;;;11.18;4.18;;;9.50;99.90;;;;;;5033054;28;20713;-76
2023/02/12 05:03:00;;;;;;;14.95;5.55;;;9.50;99.90;;;;;;5034165;28;20221;-84
2023/02/12 05:05:37;;;;;;;10.02;5.20;;;9.60;99.90;;;;;;5024712;28;20222;-76
2023/02/12 05:08:05;;;;;;;8.95;4.57;;;9.60;99.90;;;;;;5034097;28;20278;-84
2023/02/12 05:10:32;;;;;;;12.32;4.72;;;9.60;99.90;;;;;;5034277;28;20237;-83
2023/02/12 05:12:59;;;;;;;11.20;4.80;;;9.60;99.90;;;;;;5026431;28;20305;-77
2023/02/12 05:15:26;;;;;;;9.70;5.05;;;9.60;99.90;;;;;;5032724;28;20355;-76
2023/02/12 05:17:53;;;;;;;9.20;5.10;;;9.60;99.90;;;;;;5033381;28;20563;-76
2023/02/12 05:20:20;;;;;;;11.00;4.45;;;9.60;99.90;;;;;;5033142;28;20551;-82
2023/02/12 05:22:56;;;;;;;8.60;4.40;;;9.60;99.90;;;;;;5033623;28;20279;-76
2023/02/12 05:25:26;;;;;;;9.93;4.63;;;9.60;99.90;;;;;;5033244;28;20224;-84
2023/02/12 05:27:55;;;;;;;12.05;5.20;;;9.60;99.90;;;;;;5033518;28;20229;-84
2023/02/12 05:30:22;;;;;;;6.80;4.72;;;9.60;99.90;;;;;;5033343;28;20233;-84
2023/02/12 05:32:52;;;;;;;11.35;4.78;;;9.60;99.90;;;;;;5033202;28;20221;-84
2023/02/12 05:35:21;;;;;;;6.60;5.00;;;9.60;99.90;;;;;;5033788;28;20698;-85
2023/02/12 05:37:52;;;;;;;7.70;5.03;;;9.60;99.90;;;;;;5033247;28;20226;-84
2023/02/12 05:40:19;;;;;;;6.22;5.13;;;9.60;99.90;;;;;;5034159;28;20252;-84
2023/02/12 05:42:46;;;;;;;8.65;5.07;;;9.60;99.90;;;;;;5023451;28;20226;-77
2023/02/12 05:45:16;;;;;;;9.18;4.53;;;9.60;99.90;;;;;;5026668;28;20229;-86
2023/02/12 05:47:45;;;;;;;9.80;5.15;;;9.50;99.90;;;;;;5038318;28;20663;-85
2023/02/12 05:50:12;;;;;;;9.02;4.90;;;9.50;99.90;;;;;;5034570;28;20240;-85
2023/02/12 05:52:39;;;;;;;9.13;5.00;;;9.50;99.90;;;;;;5033638;28;20229;-77
2023/02/12 05:55:09;;;;;;;12.23;5.80;;;9.50;99.90;;;;;;5034082;28;20248;-77
2023/02/12 05:57:36;;;;;;;8.82;5.63;;;9.50;99.90;;;;;;5036095;28;20316;-76
2023/02/12 06:00:04;;;;;;;10.77;5.28;;;9.50;99.90;;;;;;5034749;28;20233;-85
2023/02/12 06:02:33;;;;;;;9.85;5.30;;;9.50;99.90;;;;;;5035145;28;20725;-81
2023/02/12 06:05:00;;;;;;;11.20;5.75;;;9.50;99.90;;;;;;5035849;28;20248;-83
2023/02/12 06:07:27;;;;;;;10.32;6.30;;;9.50;99.90;;;;;;5035065;28;20313;-84
2023/02/12 06:09:54;;;;;;;6.03;4.90;;;9.50;99.90;;;;;;5035630;28;20229;-83
2023/02/12 06:12:24;;;;;;;11.25;5.95;;;9.50;99.90;;;;;;5027930;28;20232;-84
2023/02/12 06:14:53;;;;;;;15.90;7.07;;;9.50;99.90;;;;;;5038614;28;20225;-84
2023/02/12 06:17:23;;;;;;;11.68;6.07;;;9.50;99.90;;;;;;5038657;28;20225;-83
2023/02/12 06:19:50;;;;;;;16.05;7.13;;;9.50;99.90;;;;;;5035648;28;20251;-76
2023/02/12 06:22:17;;;;;;;18.15;8.75;;;9.40;99.90;;;;;;5035315;28;20221;-84
2023/02/12 06:24:50;;;;;;;17.05;7.72;;;9.40;99.90;;;;;;5037226;28;20222;-83
2023/02/12 06:27:17;;;;;;;16.10;8.68;;;9.40;99.90;;;;;;5041703;28;20232;-84
2023/02/12 06:29:45;;;;;;;14.65;8.55;;;9.40;99.90;;;;;;5038961;28;20225;-83
2023/02/12 06:32:14;;;;;;;20.48;9.95;;;9.40;99.90;;;;;;5045756;28;20279;-79
2023/02/12 06:34:41;;;;;;;15.63;7.13;;;9.40;99.90;;;;;;5040511;28;20260;-77
2023/02/12 06:37:12;;;;;;;17.90;9.20;;;9.40;99.90;;;;;;5042887;28;20229;-76
2023/02/12 06:39:39;;;;;;;14.10;7.97;;;9.50;99.90;;;;;;5050630;28;20251;-81
2023/02/12 06:42:06;;;;;;;15.38;7.85;;;9.50;99.90;;;;;;5050446;28;20229;-83
2023/02/12 06:44:33;;;;;;;20.80;7.40;;;9.50;99.90;;;;;;5049643;28;20218;-83
2023/02/12 06:47:01;;;;;;;18.80;8.73;;;9.50;99.90;;;;;;5050045;28;20235;-83
2023/02/12 06:49:28;;;;;;;13.57;7.90;;;9.50;99.90;;;;;;5044446;28;20308;-76
2023/02/12 06:51:55;;;;;;;16.85;8.95;;;9.50;99.90;;;;;;5025031;28;20286;-77
2023/02/12 06:54:25;;;;;;;13.88;7.80;;;9.50;99.90;;;;;;5041582;28;20225;-77
2023/02/12 06:56:52;;;;;;;18.58;9.63;;;9.50;99.90;;;;;;5038539;28;20217;-83
2023/02/12 06:59:19;;;;;;;16.23;8.90;;;9.50;99.90;;;;;;5041914;28;20241;-84
2023/02/12 07:01:47;;;;;;;16.90;9.30;;;9.50;99.90;;;;;;5040298;28;20236;-83
2023/02/12 07:04:15;;;;;;;19.02;10.48;;;9.50;99.90;;;;;;5036635;28;20221;-76
2023/02/12 07:06:42;;;;;;;16.58;10.05;;;9.50;99.90;;;;;;5037093;28;20225;-77
2023/02/12 07:09:09;;;;;;;17.50;8.48;;;9.50;99.90;;;;;;5035510;28;20308;-76
2023/02/12 07:11:37;;;;;;;10.07;7.10;;;9.50;99.90;;;;;;5035844;28;20225;-76
2023/02/12 07:14:04;;;;;;;16.75;7.75;;;9.50;99.90;;;;;;5035334;28;20312;-76
2023/02/12 07:16:31;;;;;;;14.18;8.18;;;9.50;99.90;;;;;;5035473;28;20241;-76
2023/02/12 07:18:58;;;;;;;22.10;8.48;;;9.50;99.90;;;;;;5036434;28;20229;-83
2023/02/12 07:21:27;;;;;;;14.82;7.63;;;9.50;99.90;;;;;;5039639;28;20226;-83
2023/02/12 07:23:54;;;;;;;14.80;8.20;;;9.50;99.90;;;;;;5042920;28;20225;-84
2023/02/12 07:26:22;;;;;;;11.57;6.65;;;9.50;99.90;;;;;;5039397;28;20723;-77
2023/02/12 07:28:49;;;;;;;10.48;6.38;;;9.50;99.90;;;;;;5036700;28;20229;-77
2023/02/12 07:31:18;;;;;;;17.55;7.50;;;9.50;99.90;;;;;;5036522;28;20679;-77
2023/02/12 07:33:45;;;;;;;9.88;6.53;;;9.50;99.90;;;;;;5030336;28;20283;-83
2023/02/12 07:36:14;;;;;;;12.45;7.55;;;9.50;99.90;;;;;;5036574;28;20229;-83
2023/02/12 07:38:43;;;;;;;11.25;6.78;;;9.50;99.90;;;;;;5035928;28;20225;-83
2023/02/12 07:41:12;;;;;;;13.82;6.00;;;9.50;99.90;;;;;;5037977;28;20276;-83
2023/02/12 07:43:39;;;;;;;15.98;5.70;;;9.50;99.90;;;;;;5040985;28;20225;-83
2023/02/12 07:46:08;;;;;;;14.20;7.47;;;9.50;99.90;;;;;;5039087;28;20336;-83
2023/02/12 07:48:35;;;;;;;14.68;7.30;;;9.50;99.90;;;;;;5035834;28;20671;-76
2023/02/12 07:51:07;;;;;;;11.18;6.95;;;9.50;99.90;;;;;;5035030;28;20230;-76
2023/02/12 07:53:34;;;;;;;10.82;6.55;;;9.50;99.90;;;;;;5035631;28;20217;-83
2023/02/12 07:56:11;;;;;;;10.50;6.72;;;9.50;99.90;;;;;;5034439;28;20244;-77
2023/02/12 07:58:39;;;;;;;15.48;6.93;;;9.60;99.90;;;;;;5034830;28;20225;-76
2023/02/12 08:01:14;;;;;;;15.43;6.18;;;9.60;99.90;;;;;;5034226;28;20279;-76
2023/02/12 08:03:42;;;;;;;10.38;5.97;;;9.60;99.90;;;;;;5025515;28;20663;-77
2023/02/12 08:06:11;;;;;;;11.27;5.43;;;9.60;99.90;;;;;;5033699;28;20271;-76
2023/02/12 08:08:39;;;;;;;10.13;6.00;;;9.60;99.90;;;;;;5034265;28;20224;-76
2023/02/12 08:11:15;;;;;;;9.38;6.60;;;9.60;99.90;;;;;;5033891;28;20284;-83
2023/02/12 08:13:43;;;;;;;11.75;6.00;;;9.70;99.90;;;;;;5035328;28;20244;-84
2023/02/12 08:16:11;;;;;;;12.52;6.70;;;9.70;99.90;;;;;;5034076;28;20316;-76
2023/02/12 08:18:39;;;;;;;10.20;6.40;;;9.70;99.90;;;;;;5034404;28;20236;-76
2023/02/12 08:21:09;;;;;;;13.32;5.60;;;9.80;99.90;;;;;;5033321;28;20664;-76
2023/02/12 08:23:41;;;;;;;13.43;6.10;;;9.80;99.90;;;;;;5033534;28;20217;-84
2023/02/12 08:26:12;;;;;;;12.27;6.65;;;9.80;99.90;;;;;;5034048;28;20225;-82
2023/02/12 08:28:41;;;;;;;10.05;5.18;;;9.80;99.90;;;;;;5032454;28;20229;-84
2023/02/12 08:31:14;;;;;;;12.07;6.13;;;9.90;99.90;;;;;;5022331;28;20739;-83
2023/02/12 08:33:41;;;;;;;12.63;5.63;;;9.90;99.90;;;;;;5034353;28;20229;-83
2023/02/12 08:36:11;;;;;;;12.77;7.65;;;9.90;99.90;;;;;;5033328;28;20607;-77
2023/02/12 08:38:39;;;;;;;18.55;7.82;;;9.90;99.90;;;;;;5034386;28;20225;-77
2023/02/12 08:41:09;;;;;;;16.38;8.05;;;9.90;99.90;;;;;;5032525;28;20234;-76
2023/02/12 08:43:38;;;;;;;14.32;6.65;;;9.90;99.90;;;;;;5033195;28;20225;-76
2023/02/12 08:46:06;;;;;;;16.23;7.05;;;10.00;99.90;;;;;;5033354;28;20324;-78
2023/02/12 08:48:33;;;;;;;11.30;6.10;;;10.00;99.90;;;;;;5023450;28;20224;-77
2023/02/12 08:51:06;;;;;;;9.02;5.28;;;10.00;99.90;;;;;;5033847;28;20230;-76
2023/02/12 08:53:33;;;;;;;13.20;6.00;;;10.00;99.90;;;;;;5032920;28;20221;-78
2023/02/12 08:56:00;;;;;;;14.48;8.40;;;10.00;99.90;;;;;;5034561;28;20229;-84
2023/02/12 08:58:33;;;;;;;13.07;8.30;;;10.00;99.90;;;;;;5033605;28;20236;-83
2023/02/12 09:01:02;;;;;;;12.43;7.25;;;10.00;99.90;;;;;;5034460;28;20679;-83
2023/02/12 09:03:29;;;;;;;15.68;7.32;;;10.00;99.90;;;;;;5033862;28;21671;-77
2023/02/12 09:06:04;;;;;;;11.00;5.50;;;10.00;99.90;;;;;;5034162;28;20221;-83
2023/02/12 09:08:34;;;;;;;9.55;6.53;;;10.00;99.90;;;;;;5024001;28;20236;-85
2023/02/12 09:11:05;;;;;;;13.15;6.03;;;10.00;99.90;;;;;;5033094;28;20233;-85
2023/02/12 09:13:32;;;;;;;10.77;4.70;;;10.10;99.90;;;;;;5032849;28;20567;-77
2023/02/12 09:16:05;;;;;;;10.07;5.80;;;10.10;99.90;;;;;;5033662;28;20248;-84
2023/02/12 09:18:39;;;;;;;10.20;5.32;;;10.10;99.90;;;;;;5034658;28;20320;-84
2023/02/12 09:21:09;;;;;;;10.77;4.38;;;10.10;99.90;;;;;;5032158;28;20232;-76
2023/02/12 09:23:37;;;;;;;11.68;5.95;;;10.10;99.90;;;;;;5034212;28;20251;-85
2023/02/12 09:26:05;;;;;;;12.57;5.15;;;10.20;99.90;;;;;;5036053;28;20217;-84
2023/02/12 09:28:34;;;;;;;9.27;5.45;;;10.20;99.90;;;;;;5024816;28;20721;-83
2023/02/12 09:31:06;;;;;;;13.85;5.07;;;10.20;99.90;;;;;;5035295;28;20239;-77
2023/02/12 09:33:34;;;;;;;7.07;4.95;;;10.20;99.90;;;;;;5023849;28;20229;-84
2023/02/12 09:36:06;;;;;;;10.00;5.85;;;10.30;99.90;;;;;;5018100;28;20237;-84
2023/02/12 09:38:35;;;;;;;10.55;5.60;;;10.30;99.90;;;;;;5034057;28;20217;-84
2023/02/12 09:41:29;;;;;;;10.55;5.72;;;10.30;99.90;;;;;;5034124;28;20237;-77
2023/02/12 09:44:03;;;;;;;12.25;6.65;;;10.30;99.90;;;;;;5034215;28;20221;-78
2023/02/12 09:46:36;;;;;;;14.73;6.05;;;10.30;99.90;;;;;;5024347;28;20225;-77
2023/02/12 09:49:10;;;;;;;12.57;7.05;;;10.40;99.90;;;;;;5032784;28;20232;-77
2023/02/12 09:51:42;;;;;;;9.05;5.53;;;10.40;99.90;;;;;;5036192;28;20294;-78
2023/02/12 09:54:16;;;;;;;14.50;5.97;;;10.40;99.90;;;;;;5037820;28;20217;-77
2023/02/12 09:56:48;;;;;;;13.82;5.35;;;10.40;99.90;;;;;;5002153;28;20237;-77
2023/02/12 09:59:31;;;;;;;11.00;6.18;;;10.40;99.90;;;;;;5026179;28;20279;-84
2023/02/12 10:01:59;;;;;;;12.98;5.72;;;10.40;99.90;;;;;;5033060;28;20271;-77
2023/02/12 10:04:28;;;;;;;12.40;5.72;;;10.50;99.90;;;;;;5033341;28;20275;-77
2023/02/12 10:07:06;;;;;;;10.65;5.25;;;10.50;99.90;;;;;;5032630;28;20324;-77
2023/02/12 10:09:49;;;;;;;9.52;5.60;;;10.50;99.90;;;;;;5033005;28;20241;-77
2023/02/12 10:12:28;;;;;;;10.43;5.78;;;10.50;99.90;;;;;;5033738;28;20225;-85
2023/02/12 10:15:11;;;;;;;9.35;5.70;;;10.60;99.90;;;;;;5032620;28;20220;-78
2023/02/12 10:17:44;;;;;;;7.80;5.65;;;10.60;99.90;;;;;;5034330;28;20229;-84
2023/02/12 10:20:36;;;;;;;9.82;6.75;;;10.60;99.90;;;;;;5033332;28;20233;-84
2023/02/12 10:23:21;;;;;;;8.70;4.72;;;10.60;99.90;;;;;;5025461;28;20229;-83
2023/02/12 10:25:51;;;;;;;21.13;6.20;;;10.60;99.90;;;;;;5034763;28;20232;-84
2023/02/12 10:28:24;;;;;;;11.30;5.75;;;10.70;99.90;;;;;;5025881;28;21723;-77
2023/02/12 10:30:57;;;;;;;13.85;6.63;;;10.70;99.90;;;;;;5036865;28;20229;-83
2023/02/12 10:33:32;;;;;;;11.60;6.88;;;10.70;99.90;;;;;;4995949;28;20275;-83
2023/02/12 10:36:07;;;;;;;9.95;6.65;;;10.70;99.90;;;;;;5038542;28;20229;-83
2023/02/12 10:38:39;;;;;;;10.27;6.20;;;10.70;99.90;;;;;;5038818;28;20220;-84
2023/02/12 10:41:18;;;;;;;10.10;7.20;;;10.70;99.90;;;;;;5038587;28;20290;-84
2023/02/12 10:43:45;;;;;;;14.07;6.18;;;10.70;99.90;;;;;;5039750;28;20221;-84
2023/02/12 10:46:15;;;;;;;14.73;7.65;;;10.70;99.90;;;;;;5039967;28;20678;-84
2023/02/12 10:48:52;;;;;;;10.02;8.07;;;10.70;99.90;;;;;;5038443;28;20221;-85
2023/02/12 10:51:47;;;;;;;9.88;6.45;;;10.70;99.90;;;;;;5037583;28;20229;-84
2023/02/12 10:54:42;;;;;;;15.05;10.30;;;10.70;99.90;;;;;;5037326;28;20336;-77
2023/02/12 10:57:14;;;;;;;13.52;8.82;;;10.60;99.90;;;;;;5036216;28;20237;-84
2023/02/12 10:59:49;;;;;;;12.88;7.40;;;10.60;99.90;;;;;;5028651;28;20295;-85
2023/02/12 11:02:22;;;;;;;9.73;7.13;;;10.60;99.90;;;;;;5027731;28;20851;-85
2023/02/12 11:04:52;;;;;;;13.55;8.13;;;10.70;99.90;;;;;;5037612;28;20679;-77
2023/02/12 11:07:23;;;;;;;13.40;8.30;;;10.60;99.90;;;;;;5035708;28;20229;-77
2023/02/12 11:09:55;;;;;;;13.45;8.35;;;10.70;99.90;;;;;;5036077;28;20236;-85
2023/02/12 11:12:35;;;;;;;14.35;7.63;;;10.70;99.90;;;;;;5025590;28;20225;-85
2023/02/12 11:15:15;;;;;;;12.95;7.90;;;10.70;99.90;;;;;;5037100;28;20240;-84
2023/02/12 11:17:45;;;;;;;11.45;7.40;;;10.60;99.90;;;;;;5037589;28;20221;-77
2023/02/12 11:20:26;;;;;;;13.35;7.38;;;10.60;99.90;;;;;;5036080;28;20231;-77
2023/02/12 11:23:09;;;;;;;12.23;7.50;;;10.70;99.90;;;;;;5025413;28;20623;-77
2023/02/12 11:25:38;;;;;;;12.52;7.90;;;10.60;99.90;;;;;;5039605;28;20231;-85
2023/02/12 11:28:17;;;;;;;13.43;8.85;;;10.60;99.90;;;;;;5029070;28;20244;-77
2023/02/12 11:30:54;;;;;;;14.27;7.28;;;10.60;99.90;;;;;;5035337;28;20229;-84
2023/02/12 11:33:25;;;;;;;13.25;8.38;;;10.50;99.90;;;;;;5037859;28;20233;-78
2023/02/12 11:35:56;;;;;;;9.95;6.60;;;10.60;99.90;;;;;;5036626;28;20237;-78
2023/02/12 11:38:36;;;;;;;11.90;7.03;;;10.60;99.90;;;;;;5033720;28;20639;-77
2023/02/12 11:41:08;;;;;;;11.23;7.00;;;10.60;99.90;;;;;;5038787;28;20282;-77
2023/02/12 11:43:38;;;;;;;10.98;6.72;;;10.60;99.90;;;;;;5036234;28;20241;-77
2023/02/12 11:46:07;;;;;;;14.20;8.57;;;10.60;99.90;;;;;;5035142;28;20217;-78
2023/02/12 11:48:38;;;;;;;11.57;7.40;;;10.60;99.90;;;;;;5035652;28;20279;-77
2023/02/12 11:51:09;;;;;;;10.77;7.85;;;10.70;99.90;;;;;;5035172;28;20325;-84
2023/02/12 11:53:43;;;;;;;13.38;9.38;;;10.70;99.90;;;;;;5036700;28;20279;-85
2023/02/12 11:56:12;;;;;;;14.18;8.93;;;10.60;99.90;;;;;;5036391;28;20236;-84
2023/02/12 11:58:43;;;;;;;10.82;8.18;;;10.60;99.90;;;;;;5036158;28;20287;-77
2023/02/12 12:01:19;;;;;;;13.32;7.97;;;10.60;99.90;;;;;;5034969;28;20225;-77
2023/02/12 12:03:52;;;;;;;13.90;7.40;;;10.70;99.90;;;;;;5019386;28;20232;-84
2023/02/12 12:06:27;;;;;;;10.88;7.18;;;10.70;99.90;;;;;;5036466;28;20268;-83
2023/02/12 12:09:02;;;;;;;10.00;7.78;;;10.70;99.90;;;;;;5035582;28;20232;-83
2023/02/12 12:11:40;;;;;;;10.93;6.55;;;10.70;99.90;;;;;;5035260;28;20244;-84
2023/02/12 12:14:15;;;;;;;9.95;6.90;;;10.70;99.90;;;;;;5036147;28;20229;-83
2023/02/12 12:19:54;;;;;;;8.75;6.75;;;10.70;99.90;;;;;;5035987;28;20236;-84
2023/02/12 12:22:48;;;;;;;8.73;6.50;;;10.60;99.90;;;;;;5008494;28;20730;-83
2023/02/12 12:25:26;;;;;;;11.10;7.13;;;10.60;99.90;;;;;;5035280;28;20324;-83
2023/02/12 12:28:04;;;;;;;10.13;6.95;;;10.70;99.90;;;;;;5035520;28;20229;-84
2023/02/12 12:30:57;;;;;;;8.65;6.55;;;10.70;99.90;;;;;;5018682;28;20232;-84
2023/02/12 12:33:35;;;;;;;6.80;5.20;;;10.70;99.90;;;;;;5035192;28;20228;-83
2023/02/12 12:36:25;;;;;;;4.70;4.20;;;10.70;99.90;;;;;;5035642;28;20291;-84
2023/02/12 12:39:00;;;;;;;8.15;5.88;;;10.80;99.90;;;;;;5032576;28;20209;-83
2023/02/12 12:41:34;;;;;;;11.27;6.45;;;10.80;99.90;;;;;;5035815;28;20259;-84
2023/02/12 12:44:15;;;;;;;6.35;5.22;;;10.90;99.90;;;;;;5008978;28;20348;-83
2023/02/12 12:47:03;;;;;;;7.35;5.70;;;10.90;99.90;;;;;;5035387;28;20671;-77
2023/02/12 12:49:44;;;;;;;6.63;5.40;;;10.90;99.90;;;;;;5036594;28;20283;-84
2023/02/12 12:52:40;;;;;;;6.53;5.10;;;10.90;99.90;;;;;;5035619;28;20279;-76
2023/02/12 12:55:37;;;;;;;9.73;6.68;;;11.00;99.90;;;;;;5024281;28;20217;-78
2023/02/12 12:58:14;;;;;;;10.15;6.78;;;11.00;99.90;;;;;;5032716;28;20765;-77
2023/02/12 13:00:56;;;;;;;7.53;5.50;;;11.00;99.90;;;;;;5038828;28;20620;-78
2023/02/12 13:04:11;;;;;;;9.90;6.68;;;11.10;99.90;;;;;;5035033;28;20225;-77
2023/02/12 13:07:00;;;;;;;6.00;5.35;;;11.10;99.90;;;;;;4973677;28;20213;-84
2023/02/12 13:09:54;;;;;;;9.35;6.68;;;11.20;99.90;;;;;;5037159;28;20308;-83
2023/02/12 13:12:53;;;;;;;10.68;6.22;;;11.10;99.90;;;;;;5038796;28;20287;-83
2023/02/12 13:15:31;;;;;;;10.25;7.15;;;11.20;99.90;;;;;;5036254;28;20695;-84
2023/02/12 13:18:06;;;;;;;10.88;6.78;;;11.20;99.90;;;;;;5035256;28;20236;-77